Maersk Seoul — 9V5632 — position and weather

sailwx.info

Track history (hours):
 
Tides and Currents Weather Stations Pressure Air Temp Water Temp Dewpoint Dewpoint Depression Visibility Wind Speed Wind Dir Waves Ship Positions

Maersk Seoul

Last reported at 2017-Oct-18 18:37 UTC. Time now 2017-Oct-18 22:33 UTC.
Position N 30°37' E 122°04'.

Length 331 m; draft 9.2 m.

Type: Cargo ship. MMSI: 563032900.

Date/timePositionNaut miles runAvg speedWind from/ knotsBaromVisibWave heightAir tempDewpointWater temp
2017-Oct-18 18:37N 30°37' E 122°04'0 0.1
2017-Oct-18 13:43N 30°37' E 122°03'0 0.7
2017-Oct-18 13:29N 30°37' E 122°03'1 2.0
2017-Oct-18 13:00N 30°36' E 122°04'  
2017-Oct-15 11:48N 24°08' E 118°40'412.3
2017-Oct-15 11:28N 24°05' E 118°36'612.2
2017-Oct-15 11:00N 24°02' E 118°31'612.4
2017-Oct-15 10:30N 23°58' E 118°26'612.3
2017-Oct-15 10:00N 23°54' E 118°21'25210.0
2017-Oct-14 08:43N 22°19' E 114°06'  
2017-Oct-11 22:00N 16°48' E 113°36'89219.0 010 / 261006.9 5.4 29.0 31.0
2017-Oct-09 23:00N 04°00' E 105°54'19861.2 240 / 181006.9 5.4 28.025.231.0
2017-Oct-09 19:45N 01°15' E 104°04'1 4.7
2017-Oct-09 19:30N 01°15' E 104°03'2 4.5
2017-Oct-09 19:00N 01°15' E 104°01'2 4.2
2017-Oct-09 18:30N 01°14' E 103°59'2 4.4
2017-Oct-09 18:00N 01°14' E 103°57'6 0.9
2017-Oct-09 11:25N 01°15' E 104°02'615.7
2017-Oct-09 11:00N 01°14' E 103°56'816.2
2017-Oct-09 10:31N 01°10' E 103°49'815.2
2017-Oct-09 10:00N 01°05' E 103°43'612.5
2017-Oct-09 09:30N 01°04' E 103°37'917.8
2017-Oct-09 08:59N 01°08' E 103°29'714.6
2017-Oct-09 08:30N 01°12' E 103°23'  
Track history (hours):
 
Tides and Currents Weather Stations Pressure Air Temp Water Temp Dewpoint Dewpoint Depression Visibility Wind Speed Wind Dir Waves Ship Positions

Maersk Seoul

Last reported at 2017-Oct-18 18:37 UTC. Time now 2017-Oct-18 22:33 UTC.
Position N 30°37' E 122°04'.

Length 331 m; draft 9.2 m.

Type: Cargo ship. MMSI: 563032900.

Date/timePositionNaut miles runAvg speedWind from/ knotsBaromVisibWave heightAir tempDewpointWater temp
2017-Oct-18 18:37N 30°37' E 122°04'0 0.1
2017-Oct-18 13:43N 30°37' E 122°03'0 0.7
2017-Oct-18 13:29N 30°37' E 122°03'1 2.0
2017-Oct-18 13:00N 30°36' E 122°04'  
2017-Oct-15 11:48N 24°08' E 118°40'412.3
2017-Oct-15 11:28N 24°05' E 118°36'612.2
2017-Oct-15 11:00N 24°02' E 118°31'612.4
2017-Oct-15 10:30N 23°58' E 118°26'612.3
2017-Oct-15 10:00N 23°54' E 118°21'25210.0
2017-Oct-14 08:43N 22°19' E 114°06'  
2017-Oct-11 22:00N 16°48' E 113°36'89219.0 010 / 261006.9 5.4 29.0 31.0
2017-Oct-09 23:00N 04°00' E 105°54'19861.2 240 / 181006.9 5.4 28.025.231.0
2017-Oct-09 19:45N 01°15' E 104°04'1 4.7
2017-Oct-09 19:30N 01°15' E 104°03'2 4.5
2017-Oct-09 19:00N 01°15' E 104°01'2 4.2
2017-Oct-09 18:30N 01°14' E 103°59'2 4.4
2017-Oct-09 18:00N 01°14' E 103°57'6 0.9
2017-Oct-09 11:25N 01°15' E 104°02'615.7
2017-Oct-09 11:00N 01°14' E 103°56'816.2
2017-Oct-09 10:31N 01°10' E 103°49'815.2
2017-Oct-09 10:00N 01°05' E 103°43'612.5
2017-Oct-09 09:30N 01°04' E 103°37'917.8
2017-Oct-09 08:59N 01°08' E 103°29'714.6
2017-Oct-09 08:30N 01°12' E 103°23'  

Dump ship's entire track history